Main page
METAR-TAF:

METAR-TAF

Airports :

Air Force Station

Cape Canaveral, Florida, United States

latitude: 28-28N, longitude: 080-33W, elevation: 10 ft

Current weather observation

The report was made 56 minutes ago, at 11:56 UTC
Wind 8 mph from the South
Temperature 79°F
Humidity 94%
Pressure 30.04 in. Hg
Visibility: 10 miles
Few clouds at a height of 1400 ft

METAR: KXMR 281156Z AUTO 17007KT 10SM FEW014 26/25 A3004 RMK AO2 SLP176 70022 T02620249 10262 20242 52010 $

Time: 08:52 (12:52 UTC)


TAF: missing

Weather observations and forecasts of more than 4000 airports (METAR and TAF reports).

The available stations are represented by yellow and red dots on the map.

Hover mouse over dot to see the name of the station.

Then click to see weather observations and forecasts.

To change the map : click on the green buttons with a black cross to zoom in, on the green button with a dash to zoom out, or on the green arrows for adjacent maps.


METAR-TAF: